Time;durP1;ratioP1;P1;durP2;ratioP2;P2;SDS_P1;SDS_P2;PMS_P1;PMS_P2;Temp;Humidity;BMP_temperature;BMP_pressure;BME280_temperature;BME280_humidity;BME280_pressure;Samples;Min_cycle;Max_cycle;Signal;HPM_P1;HPM_P2
2022/09/08 05:23:20;;;;;;;;;;;;;;;19.54;100.00;96695.44;4242102;27;10195;-71
2022/09/08 05:25:23;;;;;;;;;;;;;;;19.80;100.00;96685.78;4243437;27;5765;-72
2022/09/08 05:27:25;;;;;;;;;;;;;;;19.98;100.00;96682.75;4243539;27;5600;-73
2022/09/08 05:29:29;;;;;;;;;;;;;;;20.18;100.00;96686.66;4238013;27;5075;-72
2022/09/08 05:31:32;;;;;;;;;;;;;;;20.36;99.73;96679.00;4231150;27;5711;-72
2022/09/08 05:33:35;;;;;;;;;;;;;;;20.43;99.53;96684.19;4239020;27;7671;-73
2022/09/08 05:35:38;;;;;;;;;;;;;;;20.54;99.26;96682.38;4244900;27;5597;-73
2022/09/08 05:37:41;;;;;;;;;;;;;;;20.59;98.15;96685.09;4245432;27;5699;-73
2022/09/08 05:39:46;;;;;;;;;;;;;;;20.63;98.37;96675.47;4240568;27;5715;-72
2022/09/08 05:41:49;;;;;;;;;;;;;;;20.72;97.67;96684.63;4240884;27;5601;-72
2022/09/08 05:43:53;;;;;;;;;;;;;;;20.72;97.89;96684.63;4235863;27;5617;-73
2022/09/08 05:45:55;;;;;;;;;;;;;;;20.76;97.67;96684.94;4231765;27;6284;-73
2022/09/08 05:47:58;;;;;;;;;;;;;;;20.84;97.56;96684.44;4231993;27;5593;-73
2022/09/08 05:50:01;;;;;;;;;;;;;;;20.84;97.38;96687.94;4239567;27;5613;-73
2022/09/08 05:52:04;;;;;;;;;;;;;;;20.87;97.29;96691.97;4237400;27;5679;-73
2022/09/08 05:54:06;;;;;;;;;;;;;;;20.90;97.37;96678.00;4231171;27;5833;-72
2022/09/08 05:56:11;;;;;;;;;;;;;;;20.90;96.91;96686.06;4232066;27;5666;-71
2022/09/08 05:58:14;;;;;;;;;;;;;;;20.94;96.95;96696.03;4242875;27;5604;-70
2022/09/08 06:00:25;;;;;;;;;;;;;;;20.98;96.97;96698.22;4208551;28;5102;-70
2022/09/08 06:02:28;;;;;;;;;;;;;;;20.99;96.93;96702.50;4246579;27;5684;-72
2022/09/08 06:04:31;;;;;;;;;;;;;;;21.01;97.00;96700.38;4248120;27;5059;-72
2022/09/08 06:06:37;;;;;;;;;;;;;;;21.06;96.81;96695.81;4247116;27;6290;-72
2022/09/08 06:08:41;;;;;;;;;;;;;;;21.13;96.17;96691.03;4247990;27;5608;-72
2022/09/08 06:10:44;;;;;;;;;;;;;;;21.16;96.20;96697.75;4247812;27;6376;-72
2022/09/08 06:12:54;;;;;;;;;;;;;;;21.17;95.78;96699.34;4247445;27;5597;-72
2022/09/08 06:14:56;;;;;;;;;;;;;;;21.09;95.98;96694.50;4247751;27;5777;-72
2022/09/08 06:16:59;;;;;;;;;;;;;;;21.11;95.45;96695.03;4247968;27;5601;-72
2022/09/08 06:19:07;;;;;;;;;;;;;;;21.11;95.12;96700.44;4229412;28;5623;-72
2022/09/08 06:21:12;;;;;;;;;;;;;;;21.10;95.14;96698.81;4246986;27;5679;-72
2022/09/08 06:23:15;;;;;;;;;;;;;;;21.12;95.66;96702.03;4224394;28;5762;-72
2022/09/08 06:25:18;;;;;;;;;;;;;;;21.16;95.28;96705.81;4219624;28;5616;-72
2022/09/08 06:27:28;;;;;;;;;;;;;;;21.16;95.82;96705.81;4219393;28;5605;-72
2022/09/08 06:29:46;;;;;;;;;;;;;;;21.19;95.81;96705.31;4219555;28;5628;-69
2022/09/08 06:31:53;;;;;;;;;;;;;;;21.23;94.91;96701.81;4219403;28;5623;-72
2022/09/08 06:33:57;;;;;;;;;;;;;;;21.27;94.99;96701.31;4219468;28;5656;-70
2022/09/08 06:36:10;;;;;;;;;;;;;;;21.26;94.74;96705.88;4201023;28;5742;-70
2022/09/08 06:38:16;;;;;;;;;;;;;;;21.27;94.50;96704.81;4219077;28;5743;-70
2022/09/08 06:40:25;;;;;;;;;;;;;;;21.29;94.60;96705.34;4219168;28;5732;-70
2022/09/08 06:42:36;;;;;;;;;;;;;;;21.33;95.04;96708.34;4218859;28;5644;-70
2022/09/08 06:44:43;;;;;;;;;;;;;;;21.33;95.34;96705.66;4219243;28;5794;-71
2022/09/08 06:46:46;;;;;;;;;;;;;;;21.36;94.78;96699.75;4219085;28;5625;-71
2022/09/08 06:48:51;;;;;;;;;;;;;;;21.37;94.42;96704.84;4218956;28;5632;-71
2022/09/08 06:51:12;;;;;;;;;;;;;;;21.35;94.81;96703.50;4218863;28;5624;-71
2022/09/08 06:53:23;;;;;;;;;;;;;;;21.31;94.56;96699.72;4218963;28;5612;-71
2022/09/08 06:55:35;;;;;;;;;;;;;;;21.31;94.62;96705.13;4219155;28;5619;-71
2022/09/08 06:57:50;;;;;;;;;;;;;;;21.28;94.95;96714.50;4218663;28;5616;-71
2022/09/08 07:00:12;;;;;;;;;;;;;;;21.27;94.61;96712.88;4200510;28;5547;-71
2022/09/08 07:02:40;;;;;;;;;;;;;;;21.28;94.81;96714.50;4227205;28;5753;-71
2022/09/08 07:04:53;;;;;;;;;;;;;;;21.31;94.21;96713.19;4235785;28;5695;-71
2022/09/08 07:07:01;;;;;;;;;;;;;;;21.33;94.49;96716.41;4221859;28;5675;-71
2022/09/08 07:09:12;;;;;;;;;;;;;;;21.36;94.38;96719.38;4218870;28;6372;-71
2022/09/08 07:11:33;;;;;;;;;;;;;;;21.37;93.97;96722.88;4218376;28;5671;-71
2022/09/08 07:13:44;;;;;;;;;;;;;;;21.39;93.75;96712.66;4203468;28;5746;-71
2022/09/08 07:16:02;;;;;;;;;;;;;;;21.39;94.13;96713.44;4201905;28;5730;-71
2022/09/08 07:18:16;;;;;;;;;;;;;;;21.42;94.24;96715.63;4201878;28;5089;-71
2022/09/08 07:20:20;;;;;;;;;;;;;;;21.43;93.72;96711.88;4183630;28;5645;-71
2022/09/08 07:22:32;;;;;;;;;;;;;;;21.44;93.61;96724.25;4210775;28;5680;-71
2022/09/08 07:24:41;;;;;;;;;;;;;;;21.46;93.67;96716.72;4218554;28;5639;-71
2022/09/08 07:26:49;;;;;;;;;;;;;;;21.50;93.37;96712.41;4200215;28;5630;-71
2022/09/08 07:28:54;;;;;;;;;;;;;;;21.50;93.13;96723.19;4200022;28;5638;-71
2022/09/08 07:31:01;;;;;;;;;;;;;;;21.47;92.96;96717.53;4218397;28;5080;-72
2022/09/08 07:33:15;;;;;;;;;;;;;;;21.47;92.74;96715.66;4218286;28;5635;-71
2022/09/08 07:35:26;;;;;;;;;;;;;;;21.46;92.53;96714.03;4217422;28;5616;-72
2022/09/08 07:37:40;;;;;;;;;;;;;;;21.48;92.55;96708.38;4200277;28;5650;-72
2022/09/08 07:39:48;;;;;;;;;;;;;;;21.45;93.00;96711.59;4218109;28;5683;-72
2022/09/08 07:41:54;;;;;;;;;;;;;;;21.47;92.59;96704.88;4217756;28;5612;-72
2022/09/08 07:43:59;;;;;;;;;;;;;;;21.49;92.41;96701.94;4199629;28;5686;-72
2022/09/08 07:46:22;;;;;;;;;;;;;;;21.50;92.57;96704.34;4218186;28;5628;-72
2022/09/08 07:48:36;;;;;;;;;;;;;;;21.54;92.19;96701.16;4218073;28;5084;-71
2022/09/08 07:50:57;;;;;;;;;;;;;;;21.54;92.02;96714.59;4218128;28;5616;-72
2022/09/08 07:53:07;;;;;;;;;;;;;;;21.51;91.96;96705.97;4217793;28;5612;-72
2022/09/08 07:55:21;;;;;;;;;;;;;;;21.50;92.27;96698.97;4217880;28;5612;-72
2022/09/08 07:57:36;;;;;;;;;;;;;;;21.54;91.83;96706.53;4217890;28;6301;-71
2022/09/08 07:59:48;;;;;;;;;;;;;;;21.58;91.95;96711.09;4217893;28;5608;-72
2022/09/08 08:01:55;;;;;;;;;;;;;;;21.59;91.68;96712.72;4217936;28;5737;-72
2022/09/08 08:04:08;;;;;;;;;;;;;;;21.60;91.93;96711.63;4229278;28;5734;-72
2022/09/08 08:06:18;;;;;;;;;;;;;;;21.61;91.61;96707.88;4234779;28;5613;-71
2022/09/08 08:08:32;;;;;;;;;;;;;;;21.64;90.95;96709.25;4216617;28;5612;-72
2022/09/08 08:10:42;;;;;;;;;;;;;;;21.62;91.07;96714.06;4234686;28;5613;-72
2022/09/08 08:12:51;;;;;;;;;;;;;;;21.62;90.81;96709.50;4234231;28;5763;-72
2022/09/08 08:15:01;;;;;;;;;;;;;;;21.66;90.83;96709.78;4235047;28;6526;-72
2022/09/08 08:17:28;;;;;;;;;;;;;;;21.67;90.50;96700.63;4234255;28;5628;-72
2022/09/08 08:19:42;;;;;;;;;;;;;;;21.71;90.38;96712.47;4234529;28;5605;-72
2022/09/08 08:21:52;;;;;;;;;;;;;;;21.68;90.54;96708.44;4233834;28;5581;-72
2022/09/08 08:24:24;;;;;;;;;;;;;;;21.72;90.34;96708.72;4217517;28;5605;-72
2022/09/08 08:26:35;;;;;;;;;;;;;;;21.73;90.21;96715.69;4217375;28;5609;-72
2022/09/08 08:28:41;;;;;;;;;;;;;;;21.74;90.04;96717.31;4217361;28;6962;-72
2022/09/08 08:30:54;;;;;;;;;;;;;;;21.77;89.93;96717.63;4217548;28;5745;-72
2022/09/08 08:33:09;;;;;;;;;;;;;;;21.78;89.47;96719.22;4217226;28;5761;-72
2022/09/08 08:35:19;;;;;;;;;;;;;;;21.82;89.26;96716.81;4199207;28;5085;-72
2022/09/08 08:37:27;;;;;;;;;;;;;;;21.84;89.07;96706.56;4217321;28;5604;-72
2022/09/08 08:39:34;;;;;;;;;;;;;;;21.84;89.14;96705.78;4217452;28;5798;-72
2022/09/08 08:41:51;;;;;;;;;;;;;;;21.85;88.84;96710.88;4217189;28;6309;-72
2022/09/08 08:44:32;;;;;;;;;;;;;;;21.90;89.02;96721.66;4216688;28;5629;-72
2022/09/08 08:47:08;;;;;;;;;;;;;;;21.91;88.85;96725.16;4217124;28;5636;-72
2022/09/08 08:49:54;;;;;;;;;;;;;;;21.94;88.27;96721.94;4194108;28;5655;-72
2022/09/08 08:52:13;;;;;;;;;;;;;;;21.96;88.59;96723.28;4199054;28;5081;-72
2022/09/08 08:54:33;;;;;;;;;;;;;;;21.98;88.61;96718.47;4216934;28;6236;-72
2022/09/08 08:56:39;;;;;;;;;;;;;;;22.00;88.21;96727.06;4217125;28;5616;-72
2022/09/08 08:59:00;;;;;;;;;;;;;;;22.00;87.89;96732.47;4216785;28;6294;-72
2022/09/08 09:01:14;;;;;;;;;;;;;;;22.06;87.74;96727.91;4217022;28;5703;-72
2022/09/08 09:03:29;;;;;;;;;;;;;;;22.11;87.61;96737.88;4216677;28;5338;-72
2022/09/08 09:05:51;;;;;;;;;;;;;;;22.14;87.47;96729.25;4216888;28;6273;-72
2022/09/08 09:08:32;;;;;;;;;;;;;;;22.16;87.51;96738.69;4216567;28;6348;-72
2022/09/08 09:10:49;;;;;;;;;;;;;;;22.18;87.65;96739.22;4216742;28;5765;-72
2022/09/08 09:13:14;;;;;;;;;;;;;;;22.22;87.19;96734.13;4216454;28;5691;-72
2022/09/08 09:15:42;;;;;;;;;;;;;;;22.31;87.04;96735.19;4216702;28;5704;-72
2022/09/08 09:18:35;;;;;;;;;;;;;;;22.43;87.13;96740.31;4216979;28;5608;-72
2022/09/08 09:20:56;;;;;;;;;;;;;;;22.49;86.92;96740.03;4216905;28;5819;-72
2022/09/08 09:23:12;;;;;;;;;;;;;;;22.52;86.69;96733.28;4221039;28;5648;-72
2022/09/08 09:25:21;;;;;;;;;;;;;;;22.56;86.67;96734.38;4217028;28;6278;-72
2022/09/08 09:27:36;;;;;;;;;;;;;;;22.56;86.45;96735.19;4217081;28;5706;-72
2022/09/08 09:29:41;;;;;;;;;;;;;;;22.62;86.44;96734.09;4216966;28;5616;-72
2022/09/08 09:32:12;;;;;;;;;;;;;;;22.69;86.42;96731.13;4216777;28;5631;-72
2022/09/08 09:34:59;;;;;;;;;;;;;;;22.73;86.25;96734.09;4216975;28;5620;-72
2022/09/08 09:37:26;;;;;;;;;;;;;;;22.81;86.13;96733.53;4148457;28;5629;-72
2022/09/08 09:39:43;;;;;;;;;;;;;;;22.88;85.52;96731.41;4148425;28;5830;-72
2022/09/08 09:42:10;;;;;;;;;;;;;;;22.90;85.79;96719.28;4132368;28;5634;-72
2022/09/08 09:44:36;;;;;;;;;;;;;;;22.93;85.73;96724.09;4131983;28;5722;-72
2022/09/08 09:46:59;;;;;;;;;;;;;;;22.94;85.24;96728.41;4148700;28;5720;-72
2022/09/08 09:49:31;;;;;;;;;;;;;;;22.97;84.92;96718.16;4148716;28;5611;-72
2022/09/08 09:51:47;;;;;;;;;;;;;;;22.97;84.87;96718.97;4148568;28;5664;-72
2022/09/08 09:54:09;;;;;;;;;;;;;;;22.98;85.12;96717.88;4148525;28;6325;-73
2022/09/08 09:56:52;;;;;;;;;;;;;;;22.96;84.58;96722.75;4148643;28;5616;-72
2022/09/08 09:59:41;;;;;;;;;;;;;;;22.95;84.53;96715.75;4150432;28;5675;-72
2022/09/08 10:02:08;;;;;;;;;;;;;;;22.95;84.43;96715.75;4151706;28;5612;-73
2022/09/08 10:05:06;;;;;;;;;;;;;;;22.93;84.12;96718.72;4164569;28;5693;-73
2022/09/08 10:07:35;;;;;;;;;;;;;;;22.94;83.78;96724.91;4119345;28;5809;-73
2022/09/08 10:10:06;;;;;;;;;;;;;;;22.92;83.43;96714.41;4119276;28;5738;-73
2022/09/08 10:12:41;;;;;;;;;;;;;;;22.98;83.19;96723.28;4126641;28;5701;-73
2022/09/08 10:15:23;;;;;;;;;;;;;;;22.98;83.25;96715.19;4168142;28;5786;-73
2022/09/08 10:18:07;;;;;;;;;;;;;;;22.95;82.97;96721.13;4154524;28;5692;-73
2022/09/08 10:20:36;;;;;;;;;;;;;;;23.00;82.41;96723.03;4167833;28;5812;-73
2022/09/08 10:23:12;;;;;;;;;;;;;;;23.02;82.29;96723.56;4163932;28;5704;-73
2022/09/08 10:26:03;;;;;;;;;;;;;;;22.98;82.00;96709.78;4135666;28;5077;-73
2022/09/08 10:28:37;;;;;;;;;;;;;;;22.96;82.15;96720.06;4150857;28;5810;-73
2022/09/08 10:31:05;;;;;;;;;;;;;;;22.95;81.74;96726.53;4151349;28;5711;-73
2022/09/08 10:33:40;;;;;;;;;;;;;;;22.94;81.52;96714.13;4151442;28;5712;-73
2022/09/08 10:35:45;;;;;;;;;;;;;;;22.93;81.30;96713.31;4151112;28;5779;-74
2022/09/08 10:38:23;;;;;;;;;;;;;;;22.97;81.18;96712.78;4164937;28;5727;-73
2022/09/08 10:40:37;;;;;;;;;;;;;;;22.98;80.93;96717.88;4184600;28;5662;-73
2022/09/08 10:42:48;;;;;;;;;;;;;;;23.03;80.34;96715.19;4185420;28;5797;-73
2022/09/08 10:44:58;;;;;;;;;;;;;;;23.08;80.31;96714.34;4185769;28;6990;-73
2022/09/08 10:47:28;;;;;;;;;;;;;;;23.09;80.21;96714.06;4185726;28;6415;-73
2022/09/08 10:50:01;;;;;;;;;;;;;;;23.12;80.01;96710.84;4185852;28;5703;-73
2022/09/08 10:52:26;;;;;;;;;;;;;;;23.19;79.55;96711.34;4185535;28;5797;-73
2022/09/08 10:54:53;;;;;;;;;;;;;;;23.19;79.47;96708.66;4185739;28;5722;-72
2022/09/08 10:56:59;;;;;;;;;;;;;;;23.21;78.93;96701.09;4185695;28;5715;-73
2022/09/08 10:59:37;;;;;;;;;;;;;;;23.25;79.02;96698.66;4185306;28;5739;-73
2022/09/08 11:02:16;;;;;;;;;;;;;;;23.30;78.70;96701.31;4185647;28;5404;-73
2022/09/08 11:04:49;;;;;;;;;;;;;;;23.31;78.14;96699.44;4184134;28;5642;-72
2022/09/08 11:07:11;;;;;;;;;;;;;;;23.35;77.79;96697.81;4185494;28;5714;-73
2022/09/08 11:09:35;;;;;;;;;;;;;;;23.31;77.76;96694.03;4185452;28;5737;-73
2022/09/08 11:12:17;;;;;;;;;;;;;;;23.34;77.25;96707.00;4185103;28;5741;-73
2022/09/08 11:14:51;;;;;;;;;;;;;;;23.31;76.94;96699.44;4184967;28;5785;-72
2022/09/08 11:17:11;;;;;;;;;;;;;;;23.28;76.80;96692.72;4164458;28;5825;-72
2022/09/08 11:19:36;;;;;;;;;;;;;;;23.25;76.57;96693.28;4185051;28;5901;-72
2022/09/08 11:21:47;;;;;;;;;;;;;;;23.24;76.53;96692.47;4190717;28;5607;-72
2022/09/08 11:24:02;;;;;;;;;;;;;;;23.23;76.16;96700.84;4214622;28;5660;-72
2022/09/08 11:26:20;;;;;;;;;;;;;;;23.23;75.84;96693.56;4216992;28;5600;-72
2022/09/08 11:28:37;;;;;;;;;;;;;;;23.23;75.59;96693.56;4217997;28;5755;-72
2022/09/08 11:30:49;;;;;;;;;;;;;;;23.22;75.39;96694.63;4218506;28;5663;-72
2022/09/08 11:33:09;;;;;;;;;;;;;;;23.24;75.52;96695.16;4217260;28;5620;-72
2022/09/08 11:35:32;;;;;;;;;;;;;;;23.25;74.96;96687.88;4218271;28;5773;-72
2022/09/08 11:38:00;;;;;;;;;;;;;;;23.28;74.76;96681.13;4218395;28;5676;-72
2022/09/08 11:40:24;;;;;;;;;;;;;;;23.28;74.94;96686.50;4218313;28;5691;-72
2022/09/08 11:42:59;;;;;;;;;;;;;;;23.29;74.29;96677.34;4218267;28;5046;-72
2022/09/08 11:45:16;;;;;;;;;;;;;;;23.28;74.05;96681.91;4218071;28;5813;-72
2022/09/08 11:47:56;;;;;;;;;;;;;;;23.28;73.73;96675.72;4217963;28;5675;-72
2022/09/08 11:50:19;;;;;;;;;;;;;;;23.30;73.58;96670.84;4218019;28;5754;-72
2022/09/08 11:53:23;;;;;;;;;;;;;;;23.33;73.14;96673.00;4218039;28;5787;-72
2022/09/08 11:56:04;;;;;;;;;;;;;;;23.35;72.81;96673.53;4217571;28;5660;-72
2022/09/08 11:58:32;;;;;;;;;;;;;;;23.36;72.82;96664.38;4217615;28;5692;-72
2022/09/08 12:01:00;;;;;;;;;;;;;;;23.38;72.12;96675.69;4217978;28;5713;-73
2022/09/08 12:03:42;;;;;;;;;;;;;;;23.41;72.14;96664.31;4221706;28;5672;-73
2022/09/08 12:06:25;;;;;;;;;;;;;;;23.41;71.71;96664.31;4234678;28;5617;-73
2022/09/08 12:09:06;;;;;;;;;;;;;;;23.42;71.14;96661.34;4234749;28;5246;-73
2022/09/08 12:11:21;;;;;;;;;;;;;;;23.44;71.37;96666.47;4234439;28;5637;-72
2022/09/08 12:13:32;;;;;;;;;;;;;;;23.45;70.97;96657.31;4234616;28;5684;-72
2022/09/08 12:15:56;;;;;;;;;;;;;;;23.47;70.84;96661.34;4234713;28;5688;-73
2022/09/08 12:18:15;;;;;;;;;;;;;;;23.51;70.62;96665.06;4234338;28;5601;-73
2022/09/08 12:20:30;;;;;;;;;;;;;;;23.56;70.30;96658.03;4234545;28;5632;-72
2022/09/08 12:22:55;;;;;;;;;;;;;;;23.59;70.29;96658.31;4226974;28;5699;-72
2022/09/08 12:25:13;;;;;;;;;;;;;;;23.61;70.01;96655.34;4217516;28;5738;-73
2022/09/08 12:27:51;;;;;;;;;;;;;;;23.63;69.91;96651.28;4199040;28;7309;-73
2022/09/08 12:30:05;;;;;;;;;;;;;;;23.63;69.47;96651.28;4217577;28;5631;-73
2022/09/08 12:32:41;;;;;;;;;;;;;;;23.63;69.65;96650.47;4217500;28;5604;-73
2022/09/08 12:35:10;;;;;;;;;;;;;;;23.62;69.17;96652.38;4217260;28;6306;-73
2022/09/08 12:37:18;;;;;;;;;;;;;;;23.67;68.97;96657.75;4211000;28;5223;-73
2022/09/08 12:39:36;;;;;;;;;;;;;;;23.70;68.61;96649.09;4217778;28;5640;-73
2022/09/08 12:41:58;;;;;;;;;;;;;;;23.73;68.31;96651.22;4199098;28;5757;-73
2022/09/08 12:44:11;;;;;;;;;;;;;;;23.75;68.19;96654.44;4217248;28;5609;-73
2022/09/08 12:46:33;;;;;;;;;;;;;;;23.75;67.88;96651.72;4199298;28;5623;-73
2022/09/08 12:48:48;;;;;;;;;;;;;;;23.77;68.00;96646.06;4217309;28;5612;-73
2022/09/08 12:51:00;;;;;;;;;;;;;;;23.79;67.23;96655.50;4217666;28;5612;-73
2022/09/08 12:53:24;;;;;;;;;;;;;;;23.81;67.14;96647.13;4217374;28;5702;-73
2022/09/08 12:55:35;;;;;;;;;;;;;;;23.83;67.24;96638.72;4217264;28;5608;-73
2022/09/08 12:57:54;;;;;;;;;;;;;;;23.83;66.79;96644.94;4217293;28;5695;-73
2022/09/08 13:00:05;;;;;;;;;;;;;;;23.87;66.70;96637.06;4217256;28;6290;-73
2022/09/08 13:02:24;;;;;;;;;;;;;;;23.87;66.33;96637.88;4217444;28;5625;-73
2022/09/08 13:04:49;;;;;;;;;;;;;;;23.91;66.43;96640.84;4217226;28;5616;-73
2022/09/08 13:07:08;;;;;;;;;;;;;;;23.94;66.19;96641.06;4217532;28;5627;-73
2022/09/08 13:09:23;;;;;;;;;;;;;;;23.95;66.10;96636.47;4217243;28;5616;-73
2022/09/08 13:11:46;;;;;;;;;;;;;;;23.97;66.04;96642.41;4216858;28;5737;-73
2022/09/08 13:13:49;;;;;;;;;;;;;;;23.96;65.98;96638.09;4216476;28;5607;-73
2022/09/08 13:16:01;;;;;;;;;;;;;;;23.99;65.65;96642.91;4217075;28;5731;-73
2022/09/08 13:18:21;;;;;;;;;;;;;;;23.98;65.52;96641.31;4217047;28;6924;-73
2022/09/08 13:20:38;;;;;;;;;;;;;;;23.97;65.29;96645.09;4216835;28;5687;-73
2022/09/08 13:22:47;;;;;;;;;;;;;;;23.99;65.40;96642.91;4216393;28;5699;-73
2022/09/08 13:24:59;;;;;;;;;;;;;;;24.00;64.77;96644.53;4217034;28;5629;-73
2022/09/08 13:27:14;;;;;;;;;;;;;;;24.02;64.38;96631.56;4217163;28;5621;-73
2022/09/08 13:29:44;;;;;;;;;;;;;;;24.04;64.68;96635.59;4216578;28;5608;-73
2022/09/08 13:32:22;;;;;;;;;;;;;;;24.06;64.34;96630.72;4216646;28;5641;-73
2022/09/08 13:34:45;;;;;;;;;;;;;;;24.10;64.19;96634.44;4219634;28;5627;-73
2022/09/08 13:37:04;;;;;;;;;;;;;;;24.11;63.74;96636.06;4220607;28;5632;-73
2022/09/08 13:39:20;;;;;;;;;;;;;;;24.12;63.64;96628.75;4220172;28;5603;-73
2022/09/08 13:41:38;;;;;;;;;;;;;;;24.13;63.39;96632.28;4220100;28;6292;-73
2022/09/08 13:43:57;;;;;;;;;;;;;;;24.12;63.41;96631.47;4219927;28;6989;-72
2022/09/08 13:46:17;;;;;;;;;;;;;;;24.12;63.34;96626.06;4219767;28;5625;-72
2022/09/08 13:49:02;;;;;;;;;;;;;;;24.14;62.86;96625.81;4220194;28;5608;-73
2022/09/08 13:51:14;;;;;;;;;;;;;;;24.14;62.77;96623.91;4118990;28;5830;-73
2022/09/08 13:53:44;;;;;;;;;;;;;;;24.13;62.34;96622.31;4135426;28;5712;-73
2022/09/08 13:56:00;;;;;;;;;;;;;;;24.15;62.63;96625.50;4135461;28;5738;-73
2022/09/08 13:58:32;;;;;;;;;;;;;;;24.18;62.27;96624.94;4135121;28;5869;-73
2022/09/08 14:01:00;;;;;;;;;;;;;;;24.20;62.00;96624.66;4135504;28;7823;-73
2022/09/08 14:03:06;;;;;;;;;;;;;;;24.17;61.75;96622.53;4135189;28;5787;-74
2022/09/08 14:05:19;;;;;;;;;;;;;;;24.19;61.73;96626.56;4135054;28;6420;-73
2022/09/08 14:07:27;;;;;;;;;;;;;;;24.20;61.39;96617.34;4135328;28;5719;-73
2022/09/08 14:09:34;;;;;;;;;;;;;;;24.24;61.59;96620.31;4119184;28;5758;-73
2022/09/08 14:12:04;;;;;;;;;;;;;;;24.25;61.13;96614.63;4134903;28;5760;-73
2022/09/08 14:14:44;;;;;;;;;;;;;;;24.28;60.89;96619.44;4134751;28;5723;-73
2022/09/08 14:16:47;;;;;;;;;;;;;;;24.30;60.85;96617.28;4135219;28;5847;-73
2022/09/08 14:19:04;;;;;;;;;;;;;;;24.30;60.67;96619.16;4134918;28;5731;-73
2022/09/08 14:21:19;;;;;;;;;;;;;;;24.31;60.33;96618.09;4135171;28;5723;-73
2022/09/08 14:23:57;;;;;;;;;;;;;;;24.33;60.69;96614.00;4118487;28;5730;-73
2022/09/08 14:26:30;;;;;;;;;;;;;;;24.34;60.21;96609.41;4177304;28;6558;-73
2022/09/08 14:28:44;;;;;;;;;;;;;;;24.34;60.10;96610.22;4182972;28;5931;-73
2022/09/08 14:30:58;;;;;;;;;;;;;;;24.36;59.84;96621.56;4192510;28;5715;-73
2022/09/08 14:33:24;;;;;;;;;;;;;;;24.36;60.03;96602.66;4179766;28;5893;-73
2022/09/08 14:35:45;;;;;;;;;;;;;;;24.39;59.46;96614.78;4180777;28;5719;-73
2022/09/08 14:38:00;;;;;;;;;;;;;;;24.42;59.28;96605.28;4184352;28;5707;-73
2022/09/08 14:40:18;;;;;;;;;;;;;;;24.44;59.06;96611.22;4184570;28;6189;-73
2022/09/08 14:42:24;;;;;;;;;;;;;;;24.45;58.82;96610.13;4184400;28;5714;-73
2022/09/08 14:45:00;;;;;;;;;;;;;;;24.48;58.90;96601.47;4182550;28;6385;-73
2022/09/08 14:47:08;;;;;;;;;;;;;;;24.50;58.47;96612.78;4171660;28;5736;-73
2022/09/08 14:49:26;;;;;;;;;;;;;;;24.51;58.31;96614.41;4183470;28;6511;-73
2022/09/08 14:51:43;;;;;;;;;;;;;;;24.51;58.33;96603.59;4184307;28;5719;-73
2022/09/08 14:54:14;;;;;;;;;;;;;;;24.52;57.99;96613.31;4183390;28;5773;-73
2022/09/08 14:56:24;;;;;;;;;;;;;;;24.52;58.08;96613.31;4180599;28;5727;-73
2022/09/08 14:58:55;;;;;;;;;;;;;;;24.51;58.06;96604.38;4181438;28;6051;-74
2022/09/08 15:01:12;;;;;;;;;;;;;;;24.51;57.68;96603.59;4184018;28;7904;-73
2022/09/08 15:03:19;;;;;;;;;;;;;;;24.53;57.46;96599.50;4183878;28;5783;-74
2022/09/08 15:05:27;;;;;;;;;;;;;;;24.54;57.22;96594.91;4169285;28;6398;-73
2022/09/08 15:07:30;;;;;;;;;;;;;;;24.55;57.48;96601.91;4168395;28;5748;-73
2022/09/08 15:09:48;;;;;;;;;;;;;;;24.54;57.12;96595.69;4168684;28;5955;-73
2022/09/08 15:11:55;;;;;;;;;;;;;;;24.57;56.87;96605.13;4168504;28;5727;-73
2022/09/08 15:14:04;;;;;;;;;;;;;;;24.59;56.73;96592.16;4168463;28;5717;-73
2022/09/08 15:16:30;;;;;;;;;;;;;;;24.57;56.72;96603.22;4168800;28;5751;-73
2022/09/08 15:18:40;;;;;;;;;;;;;;;24.56;56.27;96598.13;4163465;28;5815;-73
2022/09/08 15:20:45;;;;;;;;;;;;;;;24.56;56.34;96593.50;4168599;28;5914;-72
2022/09/08 15:23:04;;;;;;;;;;;;;;;24.56;56.21;96598.13;4201492;28;5612;-73
2022/09/08 15:25:34;;;;;;;;;;;;;;;24.56;56.20;96598.91;4220324;28;5652;-73
2022/09/08 15:27:41;;;;;;;;;;;;;;;24.57;56.26;96599.72;4227842;28;6701;-73
2022/09/08 15:29:55;;;;;;;;;;;;;;;24.57;55.92;96599.72;4232107;28;5698;-74
2022/09/08 15:32:21;;;;;;;;;;;;;;;24.56;55.70;96598.91;4211960;28;6310;-74
2022/09/08 15:34:32;;;;;;;;;;;;;;;24.57;55.53;96605.13;4229469;28;5601;-73
2022/09/08 15:36:49;;;;;;;;;;;;;;;24.58;55.37;96596.75;4224546;28;5605;-73
2022/09/08 15:38:58;;;;;;;;;;;;;;;24.58;55.44;96598.66;4222901;28;5830;-73
2022/09/08 15:41:20;;;;;;;;;;;;;;;24.58;55.14;96599.47;4221750;28;5947;-73
2022/09/08 15:43:35;;;;;;;;;;;;;;;24.59;55.40;96601.06;4214347;28;5607;-72
2022/09/08 15:45:51;;;;;;;;;;;;;;;24.60;54.77;96605.38;4199157;28;5654;-70
2022/09/08 15:48:08;;;;;;;;;;;;;;;24.60;54.77;96602.66;4207629;28;6385;-70
2022/09/08 15:50:20;;;;;;;;;;;;;;;24.60;54.74;96605.38;4215479;28;5797;-72
2022/09/08 15:52:40;;;;;;;;;;;;;;;24.59;54.52;96597.56;4200879;28;5889;-72
2022/09/08 15:54:57;;;;;;;;;;;;;;;24.59;54.39;96592.97;4212361;28;5738;-70
2022/09/08 15:57:21;;;;;;;;;;;;;;;24.59;54.15;96589.44;4213107;28;6310;-71
2022/09/08 16:00:09;;;;;;;;;;;;;;;24.59;53.71;96592.16;4214448;28;5714;-71
2022/09/08 16:02:31;;;;;;;;;;;;;;;24.57;53.65;96597.00;4164020;28;5771;-71
2022/09/08 16:04:45;;;;;;;;;;;;;;;24.56;53.79;96592.72;4164233;28;5696;-71
2022/09/08 16:06:51;;;;;;;;;;;;;;;24.54;53.17;96590.28;4161297;28;5849;-71
2022/09/08 16:09:04;;;;;;;;;;;;;;;24.55;53.12;96586.50;4154208;28;5707;-70
2022/09/08 16:11:37;;;;;;;;;;;;;;;24.57;53.19;96586.22;4160657;28;5752;-71
2022/09/08 16:13:50;;;;;;;;;;;;;;;24.57;53.29;96584.31;4149073;28;5569;-71
2022/09/08 16:15:58;;;;;;;;;;;;;;;24.56;53.00;96579.19;4163555;28;7724;-71
2022/09/08 16:18:24;;;;;;;;;;;;;;;24.55;52.99;96588.41;4163936;28;5692;-71
2022/09/08 16:20:27;;;;;;;;;;;;;;;24.55;52.97;96586.50;4164767;28;5744;-71
2022/09/08 16:22:35;;;;;;;;;;;;;;;24.56;52.64;96582.69;4159378;28;5704;-73
2022/09/08 16:24:46;;;;;;;;;;;;;;;24.59;52.59;96589.44;4168391;28;5706;-73
2022/09/08 16:27:00;;;;;;;;;;;;;;;24.60;52.49;96591.88;4165868;28;5752;-73
2022/09/08 16:29:21;;;;;;;;;;;;;;;24.60;52.73;96594.56;4167421;28;5836;-73
2022/09/08 16:31:33;;;;;;;;;;;;;;;24.61;52.25;96589.97;4164799;28;5772;-73
2022/09/08 16:33:54;;;;;;;;;;;;;;;24.61;52.55;96593.47;4167728;28;5754;-73
2022/09/08 16:36:06;;;;;;;;;;;;;;;24.59;52.41;96590.25;4162903;28;5780;-73
2022/09/08 16:38:33;;;;;;;;;;;;;;;24.56;52.33;96590.81;4189717;28;5647;-72
2022/09/08 16:40:51;;;;;;;;;;;;;;;24.55;52.22;96586.50;4208113;28;5604;-73
2022/09/08 16:42:57;;;;;;;;;;;;;;;24.55;51.95;96591.91;4218477;28;5688;-73
2022/09/08 16:45:00;;;;;;;;;;;;;;;24.56;52.30;96598.13;4220649;28;5700;-73
2022/09/08 16:47:37;;;;;;;;;;;;;;;24.54;52.21;96590.28;4214035;28;5740;-72
2022/09/08 16:49:49;;;;;;;;;;;;;;;24.53;52.17;96579.78;4219920;28;5754;-73
2022/09/08 16:52:00;;;;;;;;;;;;;;;24.53;52.26;96583.28;4221080;28;5764;-72
2022/09/08 16:54:21;;;;;;;;;;;;;;;24.52;51.88;96580.88;4205804;28;5864;-73
2022/09/08 16:56:35;;;;;;;;;;;;;;;24.51;51.81;96584.66;4223057;28;5758;-73
2022/09/08 16:58:41;;;;;;;;;;;;;;;24.49;51.61;96578.75;4225446;28;5617;-73
2022/09/08 17:00:58;;;;;;;;;;;;;;;24.48;51.66;96579.84;4212953;28;5691;-72
2022/09/08 17:03:07;;;;;;;;;;;;;;;24.46;51.21;96580.09;4195132;28;5638;-72
2022/09/08 17:05:38;;;;;;;;;;;;;;;24.45;51.66;96575.00;4202619;28;5721;-81
2022/09/08 17:07:53;;;;;;;;;;;;;;;24.45;51.58;96575.00;4194392;28;5642;-76
2022/09/08 17:10:17;;;;;;;;;;;;;;;24.44;51.20;96578.78;4228183;28;5685;-85
2022/09/08 17:23:50;;;;;;;;;;;;;;;24.55;51.23;96581.09;4241802;27;11135;-81
2022/09/08 17:26:04;;;;;;;;;;;;;;;24.55;51.55;96575.69;4240632;27;5733;-79
2022/09/08 17:28:39;;;;;;;;;;;;;;;24.55;51.18;96581.09;4241463;27;5741;-71
2022/09/08 17:30:54;;;;;;;;;;;;;;;24.55;51.07;96585.69;4235408;27;5830;-70
2022/09/08 17:33:20;;;;;;;;;;;;;;;24.53;51.01;96583.28;4242347;27;5100;-71
2022/09/08 17:35:47;;;;;;;;;;;;;;;24.50;51.00;96588.47;4232806;27;5995;-71
2022/09/08 17:38:07;;;;;;;;;;;;;;;24.48;50.90;96590.66;4240296;27;7743;-74
2022/09/08 17:40:23;;;;;;;;;;;;;;;24.47;50.99;96597.16;4237825;27;5756;-72
2022/09/08 17:42:38;;;;;;;;;;;;;;;24.45;50.77;96591.22;4239926;27;5869;-78